createdAt,value
2023-05-21T00:01:37.773Z,8.13
2023-05-21T00:04:06.408Z,7.50
2023-05-21T00:06:36.061Z,7.57
2023-05-21T00:09:04.529Z,8.13
2023-05-21T00:11:32.208Z,7.50
2023-05-21T00:13:59.509Z,7.72
2023-05-21T00:16:26.614Z,7.55
2023-05-21T00:18:54.752Z,7.78
2023-05-21T00:21:26.347Z,7.87
2023-05-21T00:23:57.102Z,7.80
2023-05-21T00:26:27.048Z,7.97
2023-05-21T00:28:53.915Z,8.13
2023-05-21T00:31:21.045Z,8.50
2023-05-21T00:33:47.942Z,8.48
2023-05-21T00:36:14.889Z,8.05
2023-05-21T00:38:46.150Z,9.25
2023-05-21T00:41:13.921Z,9.10
2023-05-21T00:43:40.848Z,8.93
2023-05-21T00:46:08.920Z,8.70
2023-05-21T00:48:35.868Z,7.90
2023-05-21T00:51:02.814Z,7.70
2023-05-21T00:53:30.359Z,7.03
2023-05-21T00:55:57.746Z,7.80
2023-05-21T00:58:25.271Z,9.27
2023-05-21T01:00:55.908Z,8.00
2023-05-21T01:03:23.656Z,7.45
2023-05-21T01:05:54.415Z,7.78
2023-05-21T01:08:22.024Z,8.55
2023-05-21T01:10:52.379Z,8.63
2023-05-21T01:13:20.811Z,8.98
2023-05-21T01:15:48.166Z,8.10
2023-05-21T01:18:16.282Z,8.50
2023-05-21T01:20:48.197Z,8.57
2023-05-21T01:23:19.586Z,8.13
2023-05-21T01:25:47.078Z,8.15
2023-05-21T01:28:14.372Z,8.68
2023-05-21T01:30:43.110Z,8.40
2023-05-21T01:33:28.983Z,8.07
2023-05-21T01:36:19.319Z,7.90
2023-05-21T01:39:11.486Z,8.32
2023-05-21T01:41:42.528Z,8.70
2023-05-21T01:44:09.967Z,8.90
2023-05-21T01:46:37.848Z,9.48
2023-05-21T01:49:06.484Z,9.32
2023-05-21T01:51:33.911Z,9.10
2023-05-21T01:54:01.081Z,8.88
2023-05-21T01:56:28.721Z,9.20
2023-05-21T01:58:58.377Z,8.35
2023-05-21T02:01:26.410Z,9.05
2023-05-21T02:03:53.421Z,8.57
2023-05-21T02:06:20.502Z,8.48
2023-05-21T02:08:48.487Z,7.80
2023-05-21T02:11:15.453Z,8.48
2023-05-21T02:13:42.942Z,8.50
2023-05-21T02:16:16.145Z,8.90
2023-05-21T02:18:46.628Z,7.75
2023-05-21T02:21:13.607Z,8.30
2023-05-21T02:23:41.894Z,8.70
2023-05-21T02:26:08.933Z,8.85
2023-05-21T02:28:36.563Z,9.38
2023-05-21T02:31:03.495Z,9.38
2023-05-21T02:33:30.350Z,9.23
2023-05-21T02:35:57.319Z,9.60
2023-05-21T02:38:26.194Z,8.48
2023-05-21T02:40:53.377Z,8.30
2023-05-21T02:43:20.546Z,9.43
2023-05-21T02:45:47.904Z,8.65
2023-05-21T02:48:14.916Z,9.45
2023-05-21T02:50:41.813Z,9.52
2023-05-21T02:53:08.753Z,8.57
2023-05-21T02:55:35.990Z,8.68
2023-05-21T02:58:03.181Z,8.48
2023-05-21T03:00:30.102Z,8.85
2023-05-21T03:02:57.057Z,9.00
2023-05-21T03:05:24.624Z,9.23
2023-05-21T03:07:51.610Z,8.88
2023-05-21T03:10:18.525Z,9.23
2023-05-21T03:12:45.782Z,8.85
2023-05-21T03:15:14.990Z,9.15
2023-05-21T03:17:42.531Z,10.13
2023-05-21T03:20:16.204Z,9.15
2023-05-21T03:22:44.598Z,10.43
2023-05-21T03:25:12.463Z,9.20
2023-05-21T03:27:39.728Z,9.65
2023-05-21T03:30:07.107Z,9.40
2023-05-21T03:32:34.158Z,10.13
2023-05-21T03:35:01.195Z,9.52
2023-05-21T03:37:28.149Z,9.00
2023-05-21T03:39:55.076Z,9.68
2023-05-21T03:42:21.979Z,9.60
2023-05-21T03:44:48.839Z,9.25
2023-05-21T03:47:15.861Z,9.93
2023-05-21T03:49:42.770Z,10.48
2023-05-21T03:52:09.684Z,9.38
2023-05-21T03:54:36.854Z,9.20
2023-05-21T03:57:03.830Z,9.10
2023-05-21T03:59:30.848Z,8.27
2023-05-21T04:01:57.743Z,8.63
2023-05-21T04:04:24.649Z,8.77
2023-05-21T04:06:52.006Z,8.63
2023-05-21T04:09:18.934Z,8.00
2023-05-21T04:11:45.864Z,8.13
2023-05-21T04:14:12.969Z,7.85
2023-05-21T04:16:39.922Z,7.93
2023-05-21T04:19:06.933Z,8.20
2023-05-21T04:21:33.898Z,8.18
2023-05-21T04:24:01.070Z,8.10
2023-05-21T04:26:28.260Z,8.07
2023-05-21T04:28:55.666Z,8.52
2023-05-21T04:31:23.442Z,8.38
2023-05-21T04:33:50.974Z,9.52
2023-05-21T04:36:17.846Z,10.20
2023-05-21T04:38:44.802Z,9.63
2023-05-21T04:41:11.679Z,10.15
2023-05-21T04:43:38.678Z,10.00
2023-05-21T04:46:06.174Z,9.93
2023-05-21T04:48:33.034Z,9.90
2023-05-21T04:51:00.112Z,10.15
2023-05-21T04:53:27.021Z,10.65
2023-05-21T04:55:53.933Z,10.15
2023-05-21T04:58:20.865Z,8.52
2023-05-21T05:00:51.030Z,8.65
2023-05-21T05:03:18.308Z,8.82
2023-05-21T05:05:45.387Z,8.20
2023-05-21T05:08:14.718Z,8.30
2023-05-21T05:10:42.806Z,9.00
2023-05-21T05:13:10.116Z,8.95
2023-05-21T05:15:37.388Z,7.20
2023-05-21T05:18:04.594Z,8.23
2023-05-21T05:20:31.543Z,7.78
2023-05-21T05:22:58.448Z,8.23
2023-05-21T05:25:25.482Z,7.80
2023-05-21T05:27:52.428Z,8.13
2023-05-21T05:30:20.010Z,7.80
2023-05-21T05:32:47.031Z,7.93
2023-05-21T05:35:13.937Z,7.30
2023-05-21T05:37:40.854Z,7.47
2023-05-21T05:40:08.299Z,7.28
2023-05-21T05:42:35.208Z,7.85
2023-05-21T05:45:02.085Z,7.85
2023-05-21T05:47:29.167Z,7.20
2023-05-21T05:49:56.121Z,4.85
2023-05-21T05:52:23.011Z,7.50
2023-05-21T05:54:49.920Z,7.37
2023-05-21T05:57:16.846Z,7.65
2023-05-21T05:59:43.775Z,6.90
2023-05-21T06:02:10.871Z,6.72
2023-05-21T06:04:37.791Z,7.72
2023-05-21T06:07:04.912Z,6.72
2023-05-21T06:09:31.849Z,7.00
2023-05-21T06:11:58.874Z,7.25
2023-05-21T06:14:25.850Z,5.35
2023-05-21T06:16:52.789Z,5.72
2023-05-21T06:19:20.191Z,7.57
2023-05-21T06:21:47.308Z,7.00
2023-05-21T06:24:14.204Z,7.68
2023-05-21T06:26:41.110Z,7.00
2023-05-21T06:29:08.407Z,7.32
2023-05-21T06:31:35.373Z,6.18
2023-05-21T06:34:02.478Z,7.18
2023-05-21T06:36:30.329Z,6.82
2023-05-21T06:38:57.470Z,6.72
2023-05-21T06:41:24.523Z,6.80
2023-05-21T06:43:51.690Z,6.85
2023-05-21T06:46:18.948Z,6.78
2023-05-21T06:48:48.738Z,6.80
2023-05-21T06:51:15.609Z,6.93
2023-05-21T06:53:42.531Z,6.35
2023-05-21T06:56:09.456Z,6.35
2023-05-21T06:58:36.351Z,6.53
2023-05-21T07:01:03.419Z,6.90
2023-05-21T07:03:30.523Z,6.90
2023-05-21T07:05:58.184Z,7.03
2023-05-21T07:08:25.193Z,7.85
2023-05-21T07:10:52.096Z,7.22
2023-05-21T07:13:18.981Z,6.82
2023-05-21T07:15:45.892Z,6.68
2023-05-21T07:18:13.454Z,5.95
2023-05-21T07:20:40.400Z,6.32
2023-05-21T07:23:07.250Z,7.00
2023-05-21T07:25:34.525Z,6.50
2023-05-21T07:28:01.859Z,6.15
2023-05-21T07:30:28.738Z,7.03
2023-05-21T07:32:55.732Z,6.28
2023-05-21T07:35:22.866Z,6.95
2023-05-21T07:37:49.870Z,6.20
2023-05-21T07:40:17.033Z,5.72
2023-05-21T07:42:43.935Z,5.93
2023-05-21T07:45:10.961Z,4.00
2023-05-21T07:47:37.892Z,6.30
2023-05-21T07:50:05.526Z,6.40
2023-05-21T07:52:32.383Z,5.97
2023-05-21T07:54:59.295Z,6.18
2023-05-21T07:57:26.178Z,5.72
2023-05-21T07:59:53.075Z,6.40
2023-05-21T08:02:20.250Z,6.37
2023-05-21T08:04:47.455Z,6.15
2023-05-21T08:07:17.090Z,5.65
2023-05-21T08:09:44.006Z,6.20
2023-05-21T08:12:11.247Z,6.82
2023-05-21T08:14:38.193Z,6.25
2023-05-21T08:17:05.182Z,6.10
2023-05-21T08:19:32.618Z,6.20
2023-05-21T08:21:59.640Z,5.85
2023-05-21T08:24:26.690Z,5.47
2023-05-21T08:26:53.850Z,4.85
2023-05-21T08:29:20.987Z,5.20
2023-05-21T08:31:47.911Z,5.30
2023-05-21T08:34:14.944Z,5.87
2023-05-21T08:36:46.305Z,5.57
2023-05-21T08:39:13.452Z,5.50
2023-05-21T08:41:40.951Z,5.20
2023-05-21T08:44:12.722Z,5.00
2023-05-21T08:46:41.388Z,4.20
2023-05-21T08:49:12.792Z,5.85
2023-05-21T08:51:39.814Z,5.55
2023-05-21T08:54:08.693Z,5.50
2023-05-21T08:56:36.149Z,5.45
2023-05-21T08:59:03.444Z,5.87
2023-05-21T09:01:33.586Z,5.90
2023-05-21T09:04:12.334Z,5.28
2023-05-21T09:06:47.222Z,5.57
2023-05-21T09:09:26.762Z,5.72
2023-05-21T09:11:53.702Z,5.65
2023-05-21T09:14:22.224Z,5.62
2023-05-21T09:16:49.651Z,5.87
2023-05-21T09:19:17.157Z,5.10
2023-05-21T09:21:44.112Z,5.30
2023-05-21T09:24:11.346Z,5.85
2023-05-21T09:26:38.352Z,5.50
2023-05-21T09:29:05.274Z,5.28
2023-05-21T09:31:33.038Z,5.57
2023-05-21T09:34:00.189Z,5.47
2023-05-21T09:36:27.388Z,6.20
2023-05-21T09:38:54.328Z,6.05
2023-05-21T09:41:22.472Z,5.70
2023-05-21T09:43:49.713Z,5.40
2023-05-21T09:46:16.732Z,5.10
2023-05-21T09:48:43.764Z,6.10
2023-05-21T09:51:17.958Z,5.28
2023-05-21T09:53:48.331Z,5.90
2023-05-21T09:56:15.288Z,6.30
2023-05-21T09:58:42.293Z,5.28
2023-05-21T10:01:11.328Z,5.85
2023-05-21T10:03:40.422Z,5.60
2023-05-21T10:06:11.842Z,5.45
2023-05-21T10:08:43.206Z,5.53
2023-05-21T10:11:10.414Z,5.22
2023-05-21T10:13:41.066Z,6.22
2023-05-21T10:16:11.832Z,5.50
2023-05-21T10:18:39.596Z,5.75
2023-05-21T10:21:07.413Z,5.32
2023-05-21T10:23:37.185Z,5.10
2023-05-21T10:26:04.501Z,5.87
2023-05-21T10:28:31.678Z,5.78
2023-05-21T10:30:59.144Z,5.93
2023-05-21T10:33:27.404Z,5.37
2023-05-21T10:35:54.923Z,6.47
2023-05-21T10:38:21.926Z,6.32
2023-05-21T10:40:50.185Z,5.90
2023-05-21T10:43:20.209Z,5.65
2023-05-21T10:46:07.491Z,5.53
2023-05-21T10:51:26.054Z,5.70
2023-05-21T10:54:23.516Z,6.40
2023-05-21T10:57:19.144Z,5.25
2023-05-21T10:59:49.021Z,6.20
2023-05-21T11:02:16.702Z,5.45
2023-05-21T11:04:49.479Z,5.97
2023-05-21T11:07:24.146Z,5.45
2023-05-21T11:09:51.222Z,6.32
2023-05-21T11:12:18.211Z,6.68
2023-05-21T11:14:58.545Z,5.97
2023-05-21T11:17:40.869Z,5.80
2023-05-21T11:20:14.410Z,5.80
2023-05-21T11:22:41.499Z,6.37
2023-05-21T11:25:08.727Z,5.75
2023-05-21T11:27:40.299Z,6.03
2023-05-21T11:30:15.890Z,5.70
2023-05-21T11:33:08.209Z,5.78
2023-05-21T11:35:50.375Z,5.70
2023-05-21T11:38:18.397Z,5.62
2023-05-21T11:40:55.365Z,6.03
2023-05-21T11:43:22.533Z,5.75
2023-05-21T11:45:52.923Z,5.60
2023-05-21T11:48:21.616Z,4.78
2023-05-21T11:50:48.649Z,5.70
2023-05-21T11:53:15.660Z,5.43
2023-05-21T11:55:43.799Z,5.60
2023-05-21T11:58:13.824Z,5.93
2023-05-21T12:00:41.074Z,5.32
2023-05-21T12:03:08.690Z,6.32
2023-05-21T12:05:48.978Z,5.93
2023-05-21T12:08:27.288Z,5.60
2023-05-21T12:10:59.179Z,5.80
2023-05-21T12:13:26.595Z,5.25
2023-05-21T12:15:56.212Z,5.62
2023-05-21T12:18:23.091Z,5.60
2023-05-21T12:20:52.264Z,5.90
2023-05-21T12:23:25.709Z,5.05
2023-05-21T12:25:53.863Z,4.93
2023-05-21T12:28:24.950Z,5.18
2023-05-21T12:30:51.888Z,5.30
2023-05-21T12:33:19.168Z,6.05
2023-05-21T12:35:50.543Z,5.70
2023-05-21T12:38:17.566Z,5.20
2023-05-21T12:40:45.780Z,5.30
2023-05-21T12:43:13.064Z,5.70
2023-05-21T12:45:40.080Z,5.00
2023-05-21T12:48:07.158Z,5.62
2023-05-21T12:50:35.906Z,5.37
2023-05-21T12:53:03.279Z,5.32
2023-05-21T12:55:31.717Z,5.43
2023-05-21T12:58:08.309Z,5.50
2023-05-21T13:00:35.965Z,5.22
2023-05-21T13:03:04.811Z,5.50
2023-05-21T13:05:31.908Z,5.00
2023-05-21T13:07:58.819Z,5.10
2023-05-21T13:10:25.818Z,5.57
2023-05-21T13:12:52.702Z,5.75
2023-05-21T13:15:19.983Z,5.30
2023-05-21T13:17:49.176Z,5.50
2023-05-21T13:20:20.793Z,4.90
2023-05-21T13:22:49.433Z,5.40
2023-05-21T13:25:21.439Z,5.12
2023-05-21T13:27:49.819Z,5.65
2023-05-21T13:30:17.063Z,5.30
2023-05-21T13:32:44.172Z,5.45
2023-05-21T13:35:12.408Z,5.57
2023-05-21T13:37:40.521Z,5.20
2023-05-21T13:40:11.271Z,5.25
2023-05-21T13:42:38.907Z,5.18
2023-05-21T13:45:10.405Z,5.35
2023-05-21T13:47:40.156Z,5.18
2023-05-21T13:50:08.617Z,5.68
2023-05-21T13:52:35.940Z,4.93
2023-05-21T13:55:02.893Z,5.53
2023-05-21T13:57:31.167Z,5.28
2023-05-21T13:59:58.927Z,5.25
2023-05-21T14:02:26.290Z,4.95
2023-05-21T14:04:54.119Z,4.72
2023-05-21T14:07:21.651Z,4.82
2023-05-21T14:09:48.673Z,5.30
2023-05-21T14:12:15.877Z,4.97
2023-05-21T14:14:42.748Z,5.30
2023-05-21T14:17:09.657Z,5.30
2023-05-21T14:19:36.553Z,5.68
2023-05-21T14:22:03.467Z,5.40
2023-05-21T14:24:30.483Z,4.90
2023-05-21T14:26:57.349Z,5.45
2023-05-21T14:29:24.337Z,5.15
2023-05-21T14:31:51.326Z,5.37
2023-05-21T14:34:18.232Z,5.55
2023-05-21T14:36:45.304Z,5.40
2023-05-21T14:39:12.261Z,5.43
2023-05-21T14:41:39.967Z,5.35
2023-05-21T14:44:07.028Z,5.28
2023-05-21T14:46:34.128Z,4.80
2023-05-21T14:49:01.291Z,5.03
2023-05-21T14:51:28.222Z,5.03
2023-05-21T14:53:57.362Z,5.75
2023-05-21T14:56:27.401Z,5.28
2023-05-21T14:58:54.646Z,5.47
2023-05-21T15:01:21.657Z,5.78
2023-05-21T15:03:48.679Z,5.45
2023-05-21T15:06:15.686Z,5.00
2023-05-21T15:08:42.646Z,5.28
2023-05-21T15:11:10.193Z,5.30
2023-05-21T15:13:37.134Z,5.32
2023-05-21T15:16:04.403Z,5.18
2023-05-21T15:18:31.310Z,4.57
2023-05-21T15:20:58.776Z,5.30
2023-05-21T15:23:25.665Z,5.50
2023-05-21T15:25:52.585Z,5.20
2023-05-21T15:28:20.140Z,4.87
2023-05-21T15:30:47.063Z,4.97
2023-05-21T15:33:13.934Z,5.57
2023-05-21T15:35:41.234Z,5.18
2023-05-21T15:38:08.571Z,5.18
2023-05-21T15:40:35.518Z,4.90
2023-05-21T15:43:02.561Z,5.05
2023-05-21T15:45:29.408Z,4.87
2023-05-21T15:47:56.320Z,5.68
2023-05-21T15:50:23.377Z,5.32
2023-05-21T15:52:52.378Z,5.05
2023-05-21T15:55:20.698Z,5.37
2023-05-21T15:57:47.688Z,5.28
2023-05-21T16:00:14.896Z,5.35
2023-05-21T16:02:42.230Z,5.47
2023-05-21T16:05:09.618Z,5.60
2023-05-21T16:07:38.156Z,5.80
2023-05-21T16:10:06.555Z,5.15
2023-05-21T16:12:33.526Z,5.47
2023-05-21T16:15:00.436Z,5.37
2023-05-21T16:17:27.404Z,5.30
2023-05-21T16:19:54.334Z,5.07
2023-05-21T16:22:22.257Z,5.28
2023-05-21T16:24:49.165Z,4.95
2023-05-21T16:27:16.011Z,5.10
2023-05-21T16:29:42.924Z,5.65
2023-05-21T16:32:13.163Z,5.43
2023-05-21T16:34:40.050Z,5.20
2023-05-21T16:37:09.225Z,4.70
2023-05-21T16:39:36.165Z,5.15
2023-05-21T16:42:03.227Z,5.62
2023-05-21T16:44:30.095Z,5.32
2023-05-21T16:46:57.053Z,5.35
2023-05-21T16:49:23.937Z,5.22
2023-05-21T16:51:50.877Z,5.30
2023-05-21T16:54:17.772Z,5.07
2023-05-21T16:56:44.687Z,5.20
2023-05-21T16:59:11.561Z,5.30
2023-05-21T17:01:38.557Z,5.32
2023-05-21T17:04:05.942Z,5.53
2023-05-21T17:06:34.006Z,4.70
2023-05-21T17:09:01.549Z,5.32
2023-05-21T17:11:28.784Z,5.03
2023-05-21T17:13:55.724Z,5.45
2023-05-21T17:16:23.140Z,5.70
2023-05-21T17:18:50.118Z,5.70
2023-05-21T17:21:17.113Z,5.57
2023-05-21T17:23:44.004Z,5.62
2023-05-21T17:26:11.338Z,5.70
2023-05-21T17:28:38.231Z,5.65
2023-05-21T17:31:08.670Z,5.40
2023-05-21T17:33:39.390Z,5.75
2023-05-21T17:36:06.487Z,5.60
2023-05-21T17:38:33.604Z,5.70
2023-05-21T17:41:00.673Z,5.60
2023-05-21T17:43:27.905Z,5.68
2023-05-21T17:45:54.954Z,5.78
2023-05-21T17:48:24.430Z,5.30
2023-05-21T17:50:51.447Z,5.68
2023-05-21T17:53:18.456Z,6.25
2023-05-21T17:55:45.375Z,5.78
2023-05-21T17:58:12.386Z,5.45
2023-05-21T18:00:39.468Z,6.12
2023-05-21T18:03:06.527Z,5.85
2023-05-21T18:05:33.547Z,6.22
2023-05-21T18:08:01.551Z,5.82
2023-05-21T18:10:28.750Z,5.45
2023-05-21T18:12:55.917Z,5.90
2023-05-21T18:15:22.926Z,5.30
2023-05-21T18:17:49.859Z,6.28
2023-05-21T18:20:16.963Z,5.85
2023-05-21T18:22:44.799Z,6.15
2023-05-21T18:25:11.754Z,6.30
2023-05-21T18:27:38.725Z,5.93
2023-05-21T18:30:07.153Z,6.20
2023-05-21T18:32:34.580Z,6.00
2023-05-21T18:35:01.581Z,6.30
2023-05-21T18:37:29.332Z,6.60
2023-05-21T18:39:56.300Z,6.12
2023-05-21T18:42:23.191Z,5.70
2023-05-21T18:44:53.168Z,5.55
2023-05-21T18:47:23.253Z,6.12
2023-05-21T18:49:50.185Z,6.70
2023-05-21T18:52:17.064Z,6.80
2023-05-21T18:54:43.957Z,6.68
2023-05-21T18:57:11.087Z,6.75
2023-05-21T18:59:38.943Z,6.85
2023-05-21T19:02:05.984Z,7.10
2023-05-21T19:04:33.019Z,7.47
2023-05-21T19:06:59.915Z,6.40
2023-05-21T19:09:26.834Z,6.90
2023-05-21T19:11:53.686Z,7.20
2023-05-21T19:14:21.204Z,7.55
2023-05-21T19:16:48.107Z,6.87
2023-05-21T19:19:15.148Z,6.72
2023-05-21T19:21:42.084Z,7.03
2023-05-21T19:24:09.035Z,6.93
2023-05-21T19:26:35.937Z,7.37
2023-05-21T19:29:02.912Z,7.03
2023-05-21T19:31:29.934Z,7.18
2023-05-21T19:33:56.898Z,7.20
2023-05-21T19:36:24.620Z,7.75
2023-05-21T19:38:51.592Z,7.00
2023-05-21T19:41:19.189Z,6.68
2023-05-21T19:43:46.353Z,7.20
2023-05-21T19:46:15.223Z,6.90
2023-05-21T19:48:44.264Z,6.72
2023-05-21T19:51:11.181Z,8.15
2023-05-21T19:53:38.449Z,6.85
2023-05-21T19:56:05.621Z,7.30
2023-05-21T19:58:33.309Z,7.22
2023-05-21T20:01:00.385Z,7.00
2023-05-21T20:03:28.120Z,6.93
2023-05-21T20:05:55.212Z,6.75
2023-05-21T20:08:22.625Z,6.85
2023-05-21T20:10:51.796Z,7.65
2023-05-21T20:13:19.461Z,7.78
2023-05-21T20:15:48.094Z,7.30
2023-05-21T20:18:15.636Z,7.20
2023-05-21T20:20:43.184Z,7.95
2023-05-21T20:23:10.115Z,7.80
2023-05-21T20:25:37.091Z,7.50
2023-05-21T20:28:05.451Z,7.78
2023-05-21T20:30:33.795Z,7.72
2023-05-21T20:33:03.863Z,7.50
2023-05-21T20:35:31.011Z,7.62
2023-05-21T20:37:58.017Z,7.65
2023-05-21T20:40:24.966Z,7.12
2023-05-21T20:42:53.673Z,7.60
2023-05-21T20:45:21.269Z,7.32
2023-05-21T20:47:49.957Z,7.10
2023-05-21T20:50:26.012Z,7.22
2023-05-21T20:52:53.003Z,7.30
2023-05-21T20:55:20.980Z,7.80
2023-05-21T20:57:47.851Z,7.90
2023-05-21T21:00:16.228Z,7.55
2023-05-21T21:02:44.150Z,7.32
2023-05-21T21:05:11.698Z,7.25
2023-05-21T21:07:38.813Z,8.23
2023-05-21T21:10:06.407Z,8.23
2023-05-21T21:12:33.287Z,8.27
2023-05-21T21:15:00.222Z,7.80
2023-05-21T21:17:27.154Z,7.75
2023-05-21T21:19:54.067Z,7.85
2023-05-21T21:22:21.101Z,7.93
2023-05-21T21:24:48.172Z,7.62
2023-05-21T21:27:15.117Z,7.62
2023-05-21T21:29:42.000Z,7.15
2023-05-21T21:32:08.960Z,7.47
2023-05-21T21:34:36.088Z,7.32
2023-05-21T21:37:03.057Z,7.80
2023-05-21T21:39:29.989Z,7.55
2023-05-21T21:41:56.864Z,7.82
2023-05-21T21:44:23.776Z,7.00
2023-05-21T21:46:50.685Z,7.40
2023-05-21T21:49:17.703Z,7.70
2023-05-21T21:51:44.843Z,7.80
2023-05-21T21:54:12.239Z,7.35
2023-05-21T21:56:39.122Z,7.22
2023-05-21T21:59:06.038Z,7.78
2023-05-21T22:01:33.259Z,7.75
2023-05-21T22:04:00.230Z,7.12
2023-05-21T22:06:27.821Z,8.45
2023-05-21T22:08:55.025Z,7.75
2023-05-21T22:11:22.132Z,8.02
2023-05-21T22:13:49.178Z,8.15
2023-05-21T22:16:16.224Z,7.87
2023-05-21T22:18:43.278Z,7.65
2023-05-21T22:21:10.713Z,7.60
2023-05-21T22:23:38.649Z,7.30
2023-05-21T22:26:06.285Z,8.00
2023-05-21T22:28:33.247Z,7.60
2023-05-21T22:31:00.244Z,7.65
2023-05-21T22:33:27.183Z,7.85
2023-05-21T22:35:54.696Z,8.40
2023-05-21T22:38:21.687Z,8.05
2023-05-21T22:40:48.697Z,8.50
2023-05-21T22:43:15.716Z,7.93
2023-05-21T22:45:42.750Z,7.72
2023-05-21T22:48:09.969Z,6.53
2023-05-21T22:50:38.764Z,7.35
2023-05-21T22:53:06.731Z,7.53
2023-05-21T22:55:33.635Z,8.35
2023-05-21T22:58:00.679Z,7.55
2023-05-21T23:00:27.724Z,7.82
2023-05-21T23:02:55.034Z,7.32
2023-05-21T23:05:22.584Z,7.32
2023-05-21T23:07:49.738Z,6.97
2023-05-21T23:10:16.797Z,7.05
2023-05-21T23:12:43.712Z,7.90
2023-05-21T23:15:11.055Z,7.40
2023-05-21T23:17:38.708Z,7.12
2023-05-21T23:20:09.437Z,7.25
2023-05-21T23:22:36.892Z,7.30
2023-05-21T23:25:04.162Z,7.25
2023-05-21T23:27:31.077Z,7.53
2023-05-21T23:29:57.950Z,7.80
2023-05-21T23:32:24.965Z,8.27
2023-05-21T23:34:51.896Z,8.25
2023-05-21T23:37:19.315Z,8.13
2023-05-21T23:39:49.777Z,7.95
2023-05-21T23:42:17.491Z,8.73
2023-05-21T23:44:44.811Z,8.05
2023-05-21T23:47:11.730Z,8.25
2023-05-21T23:49:39.486Z,7.65
2023-05-21T23:52:07.026Z,7.97
2023-05-21T23:54:34.021Z,7.68
2023-05-21T23:57:01.070Z,7.47
2023-05-21T23:59:28.001Z,6.57
